Terminal Aerodrome Forecast
Issued by NWS

Home | Current Version | Previous Version | Text Only | Print | Product List | Glossary On
Versions: 1 2 3 4 5 6 7 8 9 10 11 12 13 14 15 16 17
849
FTUS45 KFGZ 202038 AAB
TAFGCN
TAF AMD
KGCN 202038Z 2021/2118 29010G20KT 6SM -SHRA FEW010 BKN015 OVC035
     FM202300 31012KT P6SM FEW020 BKN040
     FM210100 30006KT P6SM FEW030
     FM210600 VRB03KT P6SM SKC=

USA.gov is the U.S. government's official web portal to all federal, state and local government web resources and services.